Terminal Aerodrome Forecast
Issued by NWS

Home | Current Version | Previous Version | Text Only | Print | Product List | Glossary On
Versions: 1 2 3 4 5 6 7 8 9 10 11 12 13 14 15 16 17 18 19 20 21 22 23 24 25
699
FTUS42 KGSP 301723
TAFGMU
TAF
KGMU 301723Z 3018/0118 21010G15KT P6SM FEW030 BKN060
     FM010300 15008KT P6SM BKN020
     FM010500 16009KT P6SM BKN010
     FM011200 19010G15KT P6SM VCSH OVC003 PROB30 0112/0116 4SM TSRA
      OVC003CB
     FM011600 20015G20KT P6SM VCSH OVC020=

USA.gov is the U.S. government's official web portal to all federal, state and local government web resources and services.